createdAt,value
2019-01-25T00:00:41.016Z,33.13
2019-01-25T00:03:20.533Z,34.17
2019-01-25T00:05:58.476Z,32.53
2019-01-25T00:08:36.868Z,32.33
2019-01-25T00:11:10.875Z,33.30
2019-01-25T00:13:46.431Z,34.70
2019-01-25T00:16:21.191Z,34.53
2019-01-25T00:18:56.186Z,32.50
2019-01-25T00:21:31.831Z,33.70
2019-01-25T00:24:12.255Z,32.37
2019-01-25T00:26:50.608Z,33.03
2019-01-25T00:29:22.828Z,32.80
2019-01-25T00:31:59.353Z,33.70
2019-01-25T00:34:37.045Z,33.47
2019-01-25T00:37:15.968Z,31.80
2019-01-25T00:39:51.414Z,33.40
2019-01-25T00:42:23.281Z,32.50
2019-01-25T00:44:57.163Z,33.33
2019-01-25T00:47:29.178Z,33.87
2019-01-25T00:50:02.423Z,33.53
2019-01-25T00:52:40.036Z,32.00
2019-01-25T00:55:12.623Z,32.87
2019-01-25T00:57:49.665Z,34.73
2019-01-25T01:00:29.950Z,33.97
2019-01-25T01:03:16.356Z,32.27
2019-01-25T01:05:48.903Z,34.10
2019-01-25T01:08:21.956Z,32.67
2019-01-25T01:10:53.362Z,34.57
2019-01-25T01:13:24.052Z,34.47
2019-01-25T01:16:05.795Z,36.27
2019-01-25T01:18:55.749Z,36.93
2019-01-25T01:21:34.583Z,35.87
2019-01-25T01:24:09.134Z,37.30
2019-01-25T01:26:42.397Z,35.10
2019-01-25T01:29:33.499Z,36.10
2019-01-25T01:32:07.582Z,35.80
2019-01-25T01:34:41.292Z,35.90
2019-01-25T01:37:30.586Z,35.83
2019-01-25T01:40:22.160Z,36.57
2019-01-25T01:42:53.955Z,39.30
2019-01-25T01:45:29.214Z,39.10
2019-01-25T01:48:00.161Z,36.20
2019-01-25T01:50:32.516Z,39.27
2019-01-25T01:53:09.499Z,37.80
2019-01-25T01:55:46.787Z,37.83
2019-01-25T01:58:18.001Z,37.33
2019-01-25T02:00:50.392Z,34.43
2019-01-25T02:03:25.476Z,33.13
2019-01-25T02:06:01.926Z,34.40
2019-01-25T02:08:35.869Z,37.20
2019-01-25T02:11:09.016Z,35.43
2019-01-25T02:13:41.024Z,33.07
2019-01-25T02:16:32.761Z,32.03
2019-01-25T02:19:13.099Z,34.97
2019-01-25T02:21:45.329Z,34.30
2019-01-25T02:24:17.351Z,33.60
2019-01-25T02:26:53.470Z,36.20
2019-01-25T02:29:30.681Z,34.50
2019-01-25T02:32:01.609Z,35.50
2019-01-25T02:34:34.274Z,33.30
2019-01-25T02:37:10.302Z,32.57
2019-01-25T02:39:45.221Z,30.57
2019-01-25T02:42:20.318Z,31.93
2019-01-25T02:44:55.086Z,32.30
2019-01-25T02:47:30.323Z,34.20
2019-01-25T02:50:03.487Z,33.90
2019-01-25T02:52:44.544Z,32.53
2019-01-25T02:55:18.887Z,32.77
2019-01-25T02:58:00.309Z,31.47
2019-01-25T03:00:30.834Z,32.00
2019-01-25T03:03:01.738Z,32.57
2019-01-25T03:05:36.389Z,31.57
2019-01-25T03:08:11.886Z,33.33
2019-01-25T03:11:02.463Z,33.23
2019-01-25T03:13:51.594Z,35.00
2019-01-25T03:16:22.479Z,33.57
2019-01-25T03:18:53.983Z,35.57
2019-01-25T03:21:29.152Z,33.47
2019-01-25T03:24:03.741Z,32.97
2019-01-25T03:26:38.784Z,34.27
2019-01-25T03:29:31.131Z,34.60
2019-01-25T03:32:14.520Z,33.63
2019-01-25T03:34:49.754Z,34.43
2019-01-25T03:37:31.807Z,34.80
2019-01-25T03:40:05.864Z,32.90
2019-01-25T03:42:39.878Z,30.97
2019-01-25T03:45:14.967Z,32.20
2019-01-25T03:47:47.130Z,32.27
2019-01-25T03:50:26.719Z,31.33
2019-01-25T03:52:59.537Z,32.10
2019-01-25T03:55:33.800Z,29.20
2019-01-25T03:58:06.330Z,30.70
2019-01-25T04:00:39.948Z,31.10
2019-01-25T04:03:13.788Z,31.63
2019-01-25T04:05:49.495Z,29.90
2019-01-25T04:08:30.222Z,30.87
2019-01-25T04:11:07.498Z,31.23
2019-01-25T04:13:45.578Z,29.93
2019-01-25T04:16:22.527Z,29.90
2019-01-25T04:18:59.812Z,31.57
2019-01-25T04:21:31.846Z,31.30
2019-01-25T04:24:03.501Z,30.40
2019-01-25T04:26:33.968Z,30.73
2019-01-25T04:29:06.736Z,28.97
2019-01-25T04:31:43.330Z,28.97
2019-01-25T04:34:17.512Z,31.43
2019-01-25T04:37:00.694Z,29.73
2019-01-25T04:39:36.219Z,28.20
2019-01-25T04:42:11.179Z,28.33
2019-01-25T04:44:48.270Z,29.77
2019-01-25T04:47:30.962Z,29.20
2019-01-25T04:50:10.108Z,27.10
2019-01-25T04:52:47.515Z,28.63
2019-01-25T04:55:39.007Z,28.10
2019-01-25T04:58:13.223Z,27.87
2019-01-25T05:00:44.783Z,29.00
2019-01-25T05:03:18.815Z,28.07
2019-01-25T05:05:53.530Z,29.00
2019-01-25T05:08:28.886Z,26.90
2019-01-25T05:10:59.879Z,27.20
2019-01-25T05:13:32.643Z,27.03
2019-01-25T05:16:09.457Z,28.13
2019-01-25T05:18:44.136Z,28.60
2019-01-25T05:21:24.541Z,28.07
2019-01-25T05:23:55.954Z,29.13
2019-01-25T05:26:45.813Z,28.27
2019-01-25T05:29:54.383Z,28.53
2019-01-25T05:32:28.320Z,27.50
2019-01-25T05:35:01.080Z,27.40
2019-01-25T05:37:32.681Z,28.73
2019-01-25T05:40:07.365Z,29.77
2019-01-25T05:42:40.378Z,30.57
2019-01-25T05:45:22.960Z,29.43
2019-01-25T05:48:01.020Z,27.80
2019-01-25T05:50:35.376Z,28.60
2019-01-25T05:53:10.475Z,29.60
2019-01-25T05:55:46.585Z,29.63
2019-01-25T05:58:32.865Z,26.33
2019-01-25T06:01:11.669Z,29.20
2019-01-25T06:03:57.552Z,29.20
2019-01-25T06:06:29.096Z,27.00
2019-01-25T06:09:01.015Z,29.60
2019-01-25T06:11:37.326Z,27.87
2019-01-25T06:14:15.021Z,29.13
2019-01-25T06:16:50.939Z,28.20
2019-01-25T06:19:42.251Z,27.83
2019-01-25T06:22:14.504Z,27.93
2019-01-25T06:25:07.337Z,30.90
2019-01-25T06:27:55.803Z,28.50
2019-01-25T06:30:29.255Z,29.10
2019-01-25T06:33:11.931Z,28.80
2019-01-25T06:35:46.718Z,29.33
2019-01-25T06:38:22.643Z,28.80
2019-01-25T06:40:55.805Z,28.70
2019-01-25T06:43:32.080Z,28.80
2019-01-25T06:46:05.746Z,28.20
2019-01-25T06:48:37.275Z,29.03
2019-01-25T06:51:13.842Z,30.40
2019-01-25T06:53:46.885Z,28.00
2019-01-25T06:56:19.338Z,29.17
2019-01-25T06:59:03.304Z,29.33
2019-01-25T07:01:50.320Z,28.77
2019-01-25T07:04:24.826Z,27.00
2019-01-25T07:06:56.299Z,26.47
2019-01-25T07:09:31.470Z,26.27
2019-01-25T07:12:08.981Z,26.10
2019-01-25T07:14:41.735Z,26.27
2019-01-25T07:17:22.297Z,27.20
2019-01-25T07:20:13.547Z,25.73
2019-01-25T07:23:00.398Z,27.43
2019-01-25T07:25:35.416Z,27.13
2019-01-25T07:28:08.589Z,26.73
2019-01-25T07:30:42.150Z,28.17
2019-01-25T07:33:16.814Z,28.67
2019-01-25T07:35:48.536Z,30.67
2019-01-25T07:38:24.180Z,29.47
2019-01-25T07:40:59.623Z,29.10
2019-01-25T07:43:31.681Z,30.50
2019-01-25T07:46:04.654Z,31.10
2019-01-25T07:48:37.932Z,33.73
2019-01-25T07:51:11.531Z,30.87
2019-01-25T07:53:48.698Z,32.37
2019-01-25T07:56:29.804Z,30.50
2019-01-25T07:59:04.473Z,31.60
2019-01-25T08:01:39.665Z,32.03
2019-01-25T08:04:16.122Z,31.30
2019-01-25T08:06:52.092Z,31.40
2019-01-25T08:09:26.230Z,32.27
2019-01-25T08:12:07.356Z,32.60
2019-01-25T08:14:38.265Z,29.67
2019-01-25T08:17:10.322Z,32.33
2019-01-25T08:19:43.208Z,31.53
2019-01-25T08:22:18.465Z,29.90
2019-01-25T08:24:56.156Z,30.97
2019-01-25T08:27:37.191Z,30.27
2019-01-25T08:30:13.675Z,31.50
2019-01-25T08:32:47.951Z,31.90
2019-01-25T08:35:24.183Z,31.20
2019-01-25T08:37:59.201Z,30.53
2019-01-25T08:40:33.118Z,30.80
2019-01-25T08:43:18.312Z,30.30
2019-01-25T08:45:54.989Z,29.20
2019-01-25T08:48:46.153Z,34.17
2019-01-25T08:51:20.962Z,31.03
2019-01-25T08:53:55.045Z,31.90
2019-01-25T08:56:30.265Z,32.43
2019-01-25T08:59:03.626Z,33.93
2019-01-25T09:01:35.375Z,33.13
2019-01-25T09:04:08.367Z,33.60
2019-01-25T09:06:48.932Z,33.20
2019-01-25T09:09:27.234Z,34.03
2019-01-25T09:12:06.519Z,34.63
2019-01-25T09:14:44.591Z,33.93
2019-01-25T09:17:18.303Z,34.17
2019-01-25T09:19:57.372Z,34.47
2019-01-25T09:22:30.125Z,35.07
2019-01-25T09:25:12.019Z,35.53
2019-01-25T09:27:48.009Z,37.00
2019-01-25T09:30:26.208Z,39.40
2019-01-25T09:33:21.568Z,33.77
2019-01-25T09:35:56.692Z,34.90
2019-01-25T09:38:30.358Z,36.67
2019-01-25T09:41:09.761Z,34.87
2019-01-25T09:43:49.952Z,36.67
2019-01-25T09:46:27.317Z,38.40
2019-01-25T09:49:12.784Z,38.33
2019-01-25T09:51:45.652Z,37.40
2019-01-25T09:54:19.120Z,35.37
2019-01-25T09:56:53.671Z,36.90
2019-01-25T09:59:24.867Z,37.90
2019-01-25T10:01:59.687Z,36.20
2019-01-25T10:04:37.988Z,35.83
2019-01-25T10:07:11.677Z,35.80
2019-01-25T10:09:48.285Z,35.60
2019-01-25T10:12:23.131Z,36.43
2019-01-25T10:14:55.947Z,33.40
2019-01-25T10:17:31.090Z,32.30
2019-01-25T10:20:03.613Z,32.80
2019-01-25T10:22:55.152Z,32.30
2019-01-25T10:25:36.492Z,33.50
2019-01-25T10:28:10.506Z,33.70
2019-01-25T10:30:47.891Z,30.03
2019-01-25T10:33:21.289Z,31.60
2019-01-25T10:35:59.692Z,30.60
2019-01-25T10:38:36.396Z,31.70
2019-01-25T10:41:19.770Z,33.20
2019-01-25T10:43:51.754Z,30.67
2019-01-25T10:46:29.780Z,32.47
2019-01-25T10:49:04.704Z,30.10
2019-01-25T10:51:36.158Z,30.83
2019-01-25T10:54:12.264Z,32.80
2019-01-25T10:56:46.154Z,32.00
2019-01-25T10:59:22.149Z,33.50
2019-01-25T11:02:07.247Z,33.97
2019-01-25T11:04:46.415Z,34.60
2019-01-25T11:07:25.885Z,34.00
2019-01-25T11:10:02.254Z,34.10
2019-01-25T11:13:01.136Z,32.30
2019-01-25T11:15:45.467Z,34.60
2019-01-25T11:18:20.794Z,35.67
2019-01-25T11:20:58.531Z,32.20
2019-01-25T11:23:35.615Z,36.20
2019-01-25T11:26:27.432Z,33.23
2019-01-25T11:29:09.133Z,34.93
2019-01-25T11:31:45.028Z,34.43
2019-01-25T11:34:17.672Z,36.87
2019-01-25T11:37:04.993Z,38.30
2019-01-25T11:39:39.852Z,37.23
2019-01-25T11:42:16.709Z,39.20
2019-01-25T11:44:48.577Z,35.43
2019-01-25T11:47:37.920Z,39.07
2019-01-25T11:50:19.370Z,36.90
2019-01-25T11:53:18.248Z,37.70
2019-01-25T11:55:52.578Z,37.40
2019-01-25T11:58:35.098Z,38.43
2019-01-25T12:01:14.162Z,39.10
2019-01-25T12:03:49.602Z,39.93
2019-01-25T12:06:25.688Z,39.00
2019-01-25T12:09:14.829Z,36.07
2019-01-25T12:11:49.943Z,38.43
2019-01-25T12:14:23.789Z,38.83
2019-01-25T12:17:13.185Z,38.30
2019-01-25T12:19:47.620Z,37.67
2019-01-25T12:22:25.215Z,39.03
2019-01-25T12:24:57.354Z,39.03
2019-01-25T12:27:36.070Z,38.30
2019-01-25T12:30:37.597Z,39.87
2019-01-25T12:33:18.123Z,38.53
2019-01-25T12:35:57.948Z,40.10
2019-01-25T12:38:50.108Z,41.10
2019-01-25T12:41:27.323Z,38.97
2019-01-25T12:44:00.168Z,39.73
2019-01-25T12:46:44.841Z,37.70
2019-01-25T12:49:28.109Z,36.50
2019-01-25T12:52:08.350Z,39.23
2019-01-25T12:54:43.696Z,37.93
2019-01-25T12:57:16.540Z,37.97
2019-01-25T12:59:48.534Z,40.20
2019-01-25T13:02:37.521Z,37.40
2019-01-25T13:05:12.737Z,39.37
2019-01-25T13:07:51.089Z,36.90
2019-01-25T13:10:25.707Z,37.97
2019-01-25T13:12:59.698Z,37.13
2019-01-25T13:15:33.251Z,35.43
2019-01-25T13:18:07.662Z,39.00
2019-01-25T13:20:39.651Z,39.63
2019-01-25T13:23:17.639Z,37.90
2019-01-25T13:26:06.680Z,38.30
2019-01-25T13:28:57.991Z,38.57
2019-01-25T13:31:43.854Z,38.10
2019-01-25T13:34:18.263Z,36.57
2019-01-25T13:36:57.056Z,38.10
2019-01-25T13:39:27.327Z,36.77
2019-01-25T13:42:13.272Z,37.60
2019-01-25T13:44:49.628Z,38.10
2019-01-25T13:47:25.899Z,38.43
2019-01-25T13:50:00.607Z,39.53
2019-01-25T13:52:34.875Z,38.67
2019-01-25T13:55:13.122Z,39.60
2019-01-25T13:57:49.252Z,39.20
2019-01-25T14:00:32.538Z,36.80
2019-01-25T14:03:05.772Z,35.90
2019-01-25T14:05:41.577Z,36.20
2019-01-25T14:08:19.419Z,42.47
2019-01-25T14:11:04.100Z,37.90
2019-01-25T14:13:38.120Z,38.93
2019-01-25T14:16:10.396Z,38.27
2019-01-25T14:18:50.234Z,40.47
2019-01-25T14:21:26.899Z,38.53
2019-01-25T14:24:01.677Z,36.80
2019-01-25T14:26:40.132Z,37.73
2019-01-25T14:29:14.007Z,38.90
2019-01-25T14:31:47.492Z,40.40
2019-01-25T14:34:22.490Z,37.27
2019-01-25T14:36:59.898Z,35.70
2019-01-25T14:39:35.904Z,35.00
2019-01-25T14:42:11.791Z,37.00
2019-01-25T14:44:45.895Z,35.63
2019-01-25T14:47:35.393Z,34.60
2019-01-25T14:50:11.552Z,35.00
2019-01-25T14:52:45.881Z,36.30
2019-01-25T14:55:20.520Z,38.17
2019-01-25T14:57:51.481Z,35.77
2019-01-25T15:00:27.347Z,35.20
2019-01-25T15:03:06.328Z,35.77
2019-01-25T15:05:45.741Z,35.37
2019-01-25T15:08:20.793Z,35.83
2019-01-25T15:11:11.600Z,34.37
2019-01-25T15:13:45.645Z,34.83
2019-01-25T15:16:19.650Z,33.50
2019-01-25T15:19:14.446Z,34.07
2019-01-25T15:22:03.823Z,34.10
2019-01-25T15:24:38.316Z,35.47
2019-01-25T15:27:13.150Z,34.83
2019-01-25T15:29:50.285Z,34.83
2019-01-25T15:32:39.021Z,35.37
2019-01-25T15:35:14.435Z,34.70
2019-01-25T15:37:48.553Z,38.60
2019-01-25T15:40:22.317Z,35.07
2019-01-25T15:42:55.348Z,38.40
2019-01-25T15:45:29.973Z,34.10
2019-01-25T15:48:04.462Z,37.07
2019-01-25T15:50:36.913Z,36.60
2019-01-25T15:53:23.922Z,37.43
2019-01-25T15:55:55.327Z,34.77
2019-01-25T15:58:37.992Z,35.40
2019-01-25T16:01:10.150Z,35.57
2019-01-25T16:03:49.648Z,35.33
2019-01-25T16:06:25.255Z,35.00
2019-01-25T16:09:23.367Z,34.43
2019-01-25T16:11:49.668Z,34.43
2019-01-25T16:14:25.086Z,34.80
2019-01-25T16:16:58.343Z,35.40
2019-01-25T16:19:49.733Z,34.20
2019-01-25T16:22:24.812Z,34.07
2019-01-25T16:25:10.690Z,33.97
2019-01-25T16:27:44.421Z,37.33
2019-01-25T16:30:38.428Z,34.00
2019-01-25T16:33:27.899Z,34.23
2019-01-25T16:36:05.153Z,31.67
2019-01-25T16:38:46.648Z,33.13
2019-01-25T16:41:20.226Z,31.77
2019-01-25T16:44:11.748Z,33.43
2019-01-25T16:46:52.866Z,31.33
2019-01-25T16:49:35.892Z,31.87
2019-01-25T16:52:09.288Z,34.50
2019-01-25T16:54:40.975Z,34.10
2019-01-25T16:57:17.780Z,31.20
2019-01-25T16:59:51.379Z,33.40
2019-01-25T17:02:23.288Z,32.37
2019-01-25T17:05:03.325Z,31.63
2019-01-25T17:07:53.353Z,31.37
2019-01-25T17:10:29.527Z,28.47
2019-01-25T17:13:04.398Z,30.27
2019-01-25T17:15:55.921Z,30.43
2019-01-25T17:18:34.495Z,29.33
2019-01-25T17:21:05.088Z,29.67
2019-01-25T17:23:38.843Z,30.00
2019-01-25T17:26:16.191Z,31.70
2019-01-25T17:28:50.488Z,32.33
2019-01-25T17:31:25.618Z,33.10
2019-01-25T17:34:01.485Z,32.17
2019-01-25T17:36:56.685Z,28.53
2019-01-25T17:39:48.078Z,30.47
2019-01-25T17:42:23.729Z,28.97
2019-01-25T17:44:57.059Z,29.63
2019-01-25T17:47:29.494Z,29.30
2019-01-25T17:50:00.235Z,29.00
2019-01-25T17:52:34.078Z,30.33
2019-01-25T17:55:12.875Z,30.97
2019-01-25T17:57:48.644Z,28.80
2019-01-25T18:00:27.317Z,29.07
2019-01-25T18:02:59.158Z,29.20
2019-01-25T18:05:42.812Z,27.70
2019-01-25T18:08:14.227Z,28.30
2019-01-25T18:10:49.785Z,27.43
2019-01-25T18:13:21.476Z,27.40
2019-01-25T18:15:57.932Z,28.70
2019-01-25T18:18:31.284Z,29.50
2019-01-25T18:21:07.356Z,27.90
2019-01-25T18:23:42.758Z,27.80
2019-01-25T18:26:36.424Z,28.80
2019-01-25T18:29:24.111Z,30.90
2019-01-25T18:31:59.367Z,28.80
2019-01-25T18:34:31.341Z,28.50
2019-01-25T18:37:03.149Z,28.97
2019-01-25T18:39:34.295Z,27.17
2019-01-25T18:42:11.948Z,30.03
2019-01-25T18:44:45.402Z,28.83
2019-01-25T18:47:18.845Z,29.07
2019-01-25T18:49:53.118Z,26.63
2019-01-25T18:52:29.136Z,27.93
2019-01-25T18:55:11.798Z,28.40
2019-01-25T18:57:45.794Z,30.80
2019-01-25T19:00:21.188Z,27.90
2019-01-25T19:02:56.878Z,28.13
2019-01-25T19:05:46.234Z,29.27
2019-01-25T19:08:26.689Z,27.90
2019-01-25T19:11:01.429Z,27.50
2019-01-25T19:13:37.171Z,28.40
2019-01-25T19:16:10.618Z,29.17
2019-01-25T19:18:41.405Z,28.13
2019-01-25T19:21:12.152Z,28.77
2019-01-25T19:23:48.383Z,27.17
2019-01-25T19:26:21.229Z,28.50
2019-01-25T19:28:54.237Z,29.17
2019-01-25T19:31:28.798Z,29.07
2019-01-25T19:34:07.659Z,28.80
2019-01-25T19:36:41.892Z,26.90
2019-01-25T19:39:16.829Z,28.87
2019-01-25T19:41:50.046Z,28.53
2019-01-25T19:44:21.662Z,29.43
2019-01-25T19:46:53.200Z,26.83
2019-01-25T19:49:27.025Z,27.70
2019-01-25T19:52:01.110Z,28.60
2019-01-25T19:54:34.167Z,25.60
2019-01-25T19:57:06.869Z,27.03
2019-01-25T19:59:41.283Z,30.07
2019-01-25T20:02:12.959Z,30.73
2019-01-25T20:04:44.022Z,30.00
2019-01-25T20:07:16.804Z,30.00
2019-01-25T20:09:51.635Z,31.20
2019-01-25T20:12:24.309Z,30.90
2019-01-25T20:15:00.757Z,28.30
2019-01-25T20:17:33.918Z,30.20
2019-01-25T20:20:06.157Z,30.63
2019-01-25T20:22:40.527Z,33.77
2019-01-25T20:25:12.505Z,32.23
2019-01-25T20:27:49.052Z,31.40
2019-01-25T20:30:24.067Z,29.87
2019-01-25T20:32:54.791Z,31.90
2019-01-25T20:35:34.436Z,32.97
2019-01-25T20:38:08.254Z,33.87
2019-01-25T20:40:40.145Z,32.90
2019-01-25T20:43:29.556Z,34.10
2019-01-25T20:46:10.684Z,34.00
2019-01-25T20:48:42.992Z,32.37
2019-01-25T20:51:14.100Z,35.30
2019-01-25T20:53:47.310Z,34.00
2019-01-25T20:56:18.638Z,33.30
2019-01-25T20:59:09.892Z,34.60
2019-01-25T21:01:41.342Z,32.90
2019-01-25T21:04:14.341Z,30.13
2019-01-25T21:06:48.741Z,29.50
2019-01-25T21:09:38.802Z,32.30
2019-01-25T21:12:10.924Z,29.60
2019-01-25T21:14:45.379Z,30.70
2019-01-25T21:17:19.071Z,27.93
2019-01-25T21:19:53.200Z,29.00
2019-01-25T21:22:31.731Z,26.97
2019-01-25T21:25:09.253Z,29.47
2019-01-25T21:27:45.530Z,25.47
2019-01-25T21:30:29.727Z,29.97
2019-01-25T21:33:02.001Z,26.80
2019-01-25T21:35:35.737Z,28.70
2019-01-25T21:38:07.803Z,26.83
2019-01-25T21:40:43.063Z,27.57
2019-01-25T21:43:21.041Z,24.23
2019-01-25T21:46:09.616Z,27.07
2019-01-25T21:48:58.883Z,25.87
2019-01-25T21:51:34.892Z,26.37
2019-01-25T21:54:13.447Z,27.20
2019-01-25T21:56:59.898Z,27.60
2019-01-25T21:59:33.554Z,28.87
2019-01-25T22:02:11.433Z,27.50
2019-01-25T22:04:47.673Z,25.07
2019-01-25T22:07:36.604Z,26.27
2019-01-25T22:10:12.119Z,25.60
2019-01-25T22:12:48.509Z,26.80
2019-01-25T22:15:23.281Z,28.00
2019-01-25T22:18:01.388Z,25.13
2019-01-25T22:20:37.008Z,27.40
2019-01-25T22:23:28.056Z,27.03
2019-01-25T22:26:00.781Z,25.50
2019-01-25T22:28:34.095Z,26.40
2019-01-25T22:31:09.019Z,25.90
2019-01-25T22:33:44.341Z,24.30
2019-01-25T22:36:19.490Z,23.43
2019-01-25T22:38:57.564Z,26.10
2019-01-25T22:41:28.556Z,23.87
2019-01-25T22:44:01.259Z,24.30
2019-01-25T22:46:32.608Z,23.23
2019-01-25T22:49:09.078Z,24.83
2019-01-25T22:51:40.842Z,25.50
2019-01-25T22:54:11.818Z,24.83
2019-01-25T22:56:43.305Z,24.37
2019-01-25T22:59:20.759Z,23.20
2019-01-25T23:01:56.520Z,22.70
2019-01-25T23:05:01.067Z,21.90
2019-01-25T23:07:34.773Z,23.20
2019-01-25T23:10:21.798Z,22.57
2019-01-25T23:12:55.212Z,24.63
2019-01-25T23:15:27.235Z,22.57
2019-01-25T23:17:58.048Z,23.17
2019-01-25T23:20:28.780Z,21.10
2019-01-25T23:23:01.489Z,21.23
2019-01-25T23:25:36.208Z,22.20
2019-01-25T23:28:08.048Z,20.37
2019-01-25T23:30:39.820Z,21.10
2019-01-25T23:33:14.205Z,20.73
2019-01-25T23:35:48.536Z,20.10
2019-01-25T23:38:21.502Z,20.87
2019-01-25T23:40:58.406Z,20.60
2019-01-25T23:43:42.993Z,21.17
2019-01-25T23:46:16.952Z,20.80
2019-01-25T23:48:49.730Z,19.50
2019-01-25T23:51:29.369Z,19.50
2019-01-25T23:54:19.249Z,18.23
2019-01-25T23:57:00.418Z,18.90
2019-01-25T23:59:31.987Z,17.30
